sensor_id;sensor_type;location;lat;lon;timestamp;P1;durP1;ratioP1;P2;durP2;ratioP2
59127;SDS011;44912;52.754;5.994;2023-01-16T00:02:07;7.43;;;2.95;;
59127;SDS011;44912;52.754;5.994;2023-01-16T00:04:33;7.15;;;2.63;;
59127;SDS011;44912;52.754;5.994;2023-01-16T00:07:00;9.70;;;2.90;;
59127;SDS011;44912;52.754;5.994;2023-01-16T00:09:26;9.23;;;3.10;;
59127;SDS011;44912;52.754;5.994;2023-01-16T00:11:51;9.18;;;2.80;;
59127;SDS011;44912;52.754;5.994;2023-01-16T00:14:17;8.70;;;2.80;;
59127;SDS011;44912;52.754;5.994;2023-01-16T00:16:42;8.93;;;2.72;;
59127;SDS011;44912;52.754;5.994;2023-01-16T00:19:08;9.48;;;2.63;;
59127;SDS011;44912;52.754;5.994;2023-01-16T00:21:33;9.00;;;2.80;;
59127;SDS011;44912;52.754;5.994;2023-01-16T00:23:59;8.57;;;2.72;;
59127;SDS011;44912;52.754;5.994;2023-01-16T00:26:26;11.95;;;2.90;;
59127;SDS011;44912;52.754;5.994;2023-01-16T00:28:52;7.50;;;3.42;;
59127;SDS011;44912;52.754;5.994;2023-01-16T00:31:18;8.43;;;2.58;;
59127;SDS011;44912;52.754;5.994;2023-01-16T00:33:44;7.32;;;2.75;;
59127;SDS011;44912;52.754;5.994;2023-01-16T00:36:10;7.25;;;2.63;;
59127;SDS011;44912;52.754;5.994;2023-01-16T00:38:36;6.53;;;2.53;;
59127;SDS011;44912;52.754;5.994;2023-01-16T00:41:02;9.50;;;2.83;;
59127;SDS011;44912;52.754;5.994;2023-01-16T00:43:27;7.43;;;2.70;;
59127;SDS011;44912;52.754;5.994;2023-01-16T00:45:53;8.68;;;2.47;;
59127;SDS011;44912;52.754;5.994;2023-01-16T00:48:19;8.35;;;2.95;;
59127;SDS011;44912;52.754;5.994;2023-01-16T00:50:44;8.82;;;2.90;;
59127;SDS011;44912;52.754;5.994;2023-01-16T00:53:10;8.52;;;2.95;;
59127;SDS011;44912;52.754;5.994;2023-01-16T00:55:35;9.60;;;2.88;;
59127;SDS011;44912;52.754;5.994;2023-01-16T00:58:02;8.32;;;2.50;;
59127;SDS011;44912;52.754;5.994;2023-01-16T01:00:29;8.15;;;2.35;;
59127;SDS011;44912;52.754;5.994;2023-01-16T01:02:55;9.73;;;2.92;;
59127;SDS011;44912;52.754;5.994;2023-01-16T01:05:20;6.55;;;2.25;;
59127;SDS011;44912;52.754;5.994;2023-01-16T01:07:46;7.72;;;2.65;;
59127;SDS011;44912;52.754;5.994;2023-01-16T01:10:11;8.18;;;2.65;;
59127;SDS011;44912;52.754;5.994;2023-01-16T01:12:37;7.18;;;2.70;;
59127;SDS011;44912;52.754;5.994;2023-01-16T01:15:03;9.93;;;2.88;;
59127;SDS011;44912;52.754;5.994;2023-01-16T01:17:29;7.38;;;2.33;;
59127;SDS011;44912;52.754;5.994;2023-01-16T01:19:55;8.65;;;2.80;;
59127;SDS011;44912;52.754;5.994;2023-01-16T01:22:20;11.25;;;3.00;;
59127;SDS011;44912;52.754;5.994;2023-01-16T01:24:49;8.30;;;2.55;;
59127;SDS011;44912;52.754;5.994;2023-01-16T01:27:15;10.95;;;2.90;;
59127;SDS011;44912;52.754;5.994;2023-01-16T01:29:42;10.95;;;2.50;;
59127;SDS011;44912;52.754;5.994;2023-01-16T01:32:07;8.43;;;2.55;;
59127;SDS011;44912;52.754;5.994;2023-01-16T01:34:33;8.65;;;2.88;;
59127;SDS011;44912;52.754;5.994;2023-01-16T01:37:00;7.90;;;2.40;;
59127;SDS011;44912;52.754;5.994;2023-01-16T01:39:26;8.88;;;2.45;;
59127;SDS011;44912;52.754;5.994;2023-01-16T01:41:52;8.15;;;2.53;;
59127;SDS011;44912;52.754;5.994;2023-01-16T01:47:11;8.88;;;3.13;;
59127;SDS011;44912;52.754;5.994;2023-01-16T01:49:38;10.20;;;2.50;;
59127;SDS011;44912;52.754;5.994;2023-01-16T01:52:04;7.47;;;2.50;;
59127;SDS011;44912;52.754;5.994;2023-01-16T01:54:32;8.50;;;2.85;;
59127;SDS011;44912;52.754;5.994;2023-01-16T01:57:16;8.45;;;2.90;;
59127;SDS011;44912;52.754;5.994;2023-01-16T01:59:45;11.27;;;2.93;;
59127;SDS011;44912;52.754;5.994;2023-01-16T02:02:15;8.65;;;2.80;;
59127;SDS011;44912;52.754;5.994;2023-01-16T02:04:45;7.32;;;3.58;;
59127;SDS011;44912;52.754;5.994;2023-01-16T02:07:13;9.85;;;3.40;;
59127;SDS011;44912;52.754;5.994;2023-01-16T02:09:42;7.85;;;2.97;;
59127;SDS011;44912;52.754;5.994;2023-01-16T02:12:09;9.68;;;3.83;;
59127;SDS011;44912;52.754;5.994;2023-01-16T02:14:37;9.07;;;3.10;;
59127;SDS011;44912;52.754;5.994;2023-01-16T02:17:07;9.05;;;2.95;;
59127;SDS011;44912;52.754;5.994;2023-01-16T02:28:45;9.02;;;3.33;;
59127;SDS011;44912;52.754;5.994;2023-01-16T02:45:18;10.73;;;4.38;;
59127;SDS011;44912;52.754;5.994;2023-01-16T02:53:48;11.43;;;5.68;;
59127;SDS011;44912;52.754;5.994;2023-01-16T02:56:15;12.10;;;5.80;;
59127;SDS011;44912;52.754;5.994;2023-01-16T02:58:47;12.03;;;6.63;;
59127;SDS011;44912;52.754;5.994;2023-01-16T03:01:16;11.43;;;6.55;;
59127;SDS011;44912;52.754;5.994;2023-01-16T03:08:51;14.32;;;7.63;;
59127;SDS011;44912;52.754;5.994;2023-01-16T03:11:27;19.67;;;8.80;;
59127;SDS011;44912;52.754;5.994;2023-01-16T03:13:55;14.55;;;8.05;;
59127;SDS011;44912;52.754;5.994;2023-01-16T03:16:50;13.00;;;7.47;;
59127;SDS011;44912;52.754;5.994;2023-01-16T03:22:30;16.17;;;9.02;;
59127;SDS011;44912;52.754;5.994;2023-01-16T03:30:53;15.40;;;9.02;;
59127;SDS011;44912;52.754;5.994;2023-01-16T03:33:35;16.40;;;8.98;;
59127;SDS011;44912;52.754;5.994;2023-01-16T03:38:43;15.68;;;9.75;;
59127;SDS011;44912;52.754;5.994;2023-01-16T03:41:12;18.77;;;10.13;;
59127;SDS011;44912;52.754;5.994;2023-01-16T03:43:41;21.73;;;11.73;;
59127;SDS011;44912;52.754;5.994;2023-01-16T03:46:10;21.92;;;12.23;;
59127;SDS011;44912;52.754;5.994;2023-01-16T03:48:46;24.35;;;12.98;;
59127;SDS011;44912;52.754;5.994;2023-01-16T03:51:16;17.58;;;11.60;;
59127;SDS011;44912;52.754;5.994;2023-01-16T03:53:47;19.77;;;12.60;;
59127;SDS011;44912;52.754;5.994;2023-01-16T03:56:30;22.65;;;12.90;;
59127;SDS011;44912;52.754;5.994;2023-01-16T03:59:00;26.33;;;13.82;;
59127;SDS011;44912;52.754;5.994;2023-01-16T04:01:32;21.77;;;13.50;;
59127;SDS011;44912;52.754;5.994;2023-01-16T04:04:16;25.63;;;14.65;;
59127;SDS011;44912;52.754;5.994;2023-01-16T04:06:54;20.75;;;13.90;;
59127;SDS011;44912;52.754;5.994;2023-01-16T04:12:15;20.17;;;13.77;;
59127;SDS011;44912;52.754;5.994;2023-01-16T04:14:46;24.13;;;15.02;;
59127;SDS011;44912;52.754;5.994;2023-01-16T04:17:15;24.63;;;14.48;;
59127;SDS011;44912;52.754;5.994;2023-01-16T04:19:41;22.73;;;13.60;;
59127;SDS011;44912;52.754;5.994;2023-01-16T04:22:09;20.65;;;14.10;;
59127;SDS011;44912;52.754;5.994;2023-01-16T04:24:45;23.50;;;14.50;;
59127;SDS011;44912;52.754;5.994;2023-01-16T04:27:11;19.83;;;14.00;;
59127;SDS011;44912;52.754;5.994;2023-01-16T04:29:36;18.98;;;13.60;;
59127;SDS011;44912;52.754;5.994;2023-01-16T04:32:02;23.25;;;13.68;;
59127;SDS011;44912;52.754;5.994;2023-01-16T04:34:27;18.73;;;13.48;;
59127;SDS011;44912;52.754;5.994;2023-01-16T04:36:53;22.70;;;12.60;;
59127;SDS011;44912;52.754;5.994;2023-01-16T04:39:18;19.13;;;12.75;;
59127;SDS011;44912;52.754;5.994;2023-01-16T04:41:44;17.67;;;12.20;;
59127;SDS011;44912;52.754;5.994;2023-01-16T04:44:15;18.77;;;11.27;;
59127;SDS011;44912;52.754;5.994;2023-01-16T04:46:41;19.73;;;11.48;;
59127;SDS011;44912;52.754;5.994;2023-01-16T04:49:06;18.58;;;10.82;;
59127;SDS011;44912;52.754;5.994;2023-01-16T04:51:32;18.98;;;11.77;;
59127;SDS011;44912;52.754;5.994;2023-01-16T04:53:58;16.35;;;11.27;;
59127;SDS011;44912;52.754;5.994;2023-01-16T04:56:24;16.88;;;11.77;;
59127;SDS011;44912;52.754;5.994;2023-01-16T04:58:49;22.95;;;11.70;;
59127;SDS011;44912;52.754;5.994;2023-01-16T05:01:16;19.98;;;11.57;;
59127;SDS011;44912;52.754;5.994;2023-01-16T05:03:42;18.95;;;11.73;;
59127;SDS011;44912;52.754;5.994;2023-01-16T05:06:08;19.60;;;12.15;;
59127;SDS011;44912;52.754;5.994;2023-01-16T05:08:33;17.85;;;11.60;;
59127;SDS011;44912;52.754;5.994;2023-01-16T05:10:59;17.67;;;10.95;;
59127;SDS011;44912;52.754;5.994;2023-01-16T05:13:26;19.05;;;12.05;;
59127;SDS011;44912;52.754;5.994;2023-01-16T05:15:52;18.67;;;10.75;;
59127;SDS011;44912;52.754;5.994;2023-01-16T05:18:18;17.30;;;10.85;;
59127;SDS011;44912;52.754;5.994;2023-01-16T05:20:43;18.45;;;10.50;;
59127;SDS011;44912;52.754;5.994;2023-01-16T05:23:09;20.23;;;10.38;;
59127;SDS011;44912;52.754;5.994;2023-01-16T05:25:35;20.98;;;9.93;;
59127;SDS011;44912;52.754;5.994;2023-01-16T05:28:02;20.08;;;9.70;;
59127;SDS011;44912;52.754;5.994;2023-01-16T05:30:27;16.10;;;9.32;;
59127;SDS011;44912;52.754;5.994;2023-01-16T05:32:53;17.60;;;9.23;;
59127;SDS011;44912;52.754;5.994;2023-01-16T05:35:19;16.20;;;8.30;;
59127;SDS011;44912;52.754;5.994;2023-01-16T05:37:47;12.48;;;8.13;;
59127;SDS011;44912;52.754;5.994;2023-01-16T05:40:12;13.20;;;7.03;;
59127;SDS011;44912;52.754;5.994;2023-01-16T05:42:38;14.15;;;7.55;;
59127;SDS011;44912;52.754;5.994;2023-01-16T05:45:06;15.30;;;7.57;;
59127;SDS011;44912;52.754;5.994;2023-01-16T05:47:32;14.57;;;7.32;;
59127;SDS011;44912;52.754;5.994;2023-01-16T05:49:57;13.32;;;7.07;;
59127;SDS011;44912;52.754;5.994;2023-01-16T05:52:26;12.07;;;6.50;;
59127;SDS011;44912;52.754;5.994;2023-01-16T05:54:52;15.18;;;6.80;;
59127;SDS011;44912;52.754;5.994;2023-01-16T05:57:19;13.65;;;6.70;;
59127;SDS011;44912;52.754;5.994;2023-01-16T05:59:51;14.10;;;6.43;;
59127;SDS011;44912;52.754;5.994;2023-01-16T06:02:18;12.73;;;6.10;;
59127;SDS011;44912;52.754;5.994;2023-01-16T06:04:45;16.73;;;7.10;;
59127;SDS011;44912;52.754;5.994;2023-01-16T06:07:11;12.52;;;7.30;;
59127;SDS011;44912;52.754;5.994;2023-01-16T06:09:37;13.70;;;7.30;;
59127;SDS011;44912;52.754;5.994;2023-01-16T06:12:03;15.35;;;6.72;;
59127;SDS011;44912;52.754;5.994;2023-01-16T06:14:29;11.68;;;6.28;;
59127;SDS011;44912;52.754;5.994;2023-01-16T06:16:54;12.07;;;5.90;;
59127;SDS011;44912;52.754;5.994;2023-01-16T06:19:20;14.68;;;6.13;;
59127;SDS011;44912;52.754;5.994;2023-01-16T06:21:45;12.02;;;5.70;;
59127;SDS011;44912;52.754;5.994;2023-01-16T06:24:11;12.80;;;5.75;;
59127;SDS011;44912;52.754;5.994;2023-01-16T06:26:36;10.10;;;5.43;;
59127;SDS011;44912;52.754;5.994;2023-01-16T06:29:02;10.40;;;5.32;;
59127;SDS011;44912;52.754;5.994;2023-01-16T06:31:27;10.73;;;5.63;;
59127;SDS011;44912;52.754;5.994;2023-01-16T06:33:53;13.90;;;5.38;;
59127;SDS011;44912;52.754;5.994;2023-01-16T06:36:19;13.57;;;5.20;;
59127;SDS011;44912;52.754;5.994;2023-01-16T06:38:44;13.40;;;4.72;;
59127;SDS011;44912;52.754;5.994;2023-01-16T06:41:10;15.75;;;5.07;;
59127;SDS011;44912;52.754;5.994;2023-01-16T06:43:36;12.85;;;4.75;;
59127;SDS011;44912;52.754;5.994;2023-01-16T06:46:02;12.05;;;4.95;;
59127;SDS011;44912;52.754;5.994;2023-01-16T06:48:28;14.32;;;5.35;;
59127;SDS011;44912;52.754;5.994;2023-01-16T06:50:53;12.45;;;4.63;;
59127;SDS011;44912;52.754;5.994;2023-01-16T06:53:19;11.77;;;4.50;;
59127;SDS011;44912;52.754;5.994;2023-01-16T06:55:45;10.45;;;4.30;;
59127;SDS011;44912;52.754;5.994;2023-01-16T06:58:10;13.05;;;4.68;;
59127;SDS011;44912;52.754;5.994;2023-01-16T07:00:36;11.75;;;3.75;;
59127;SDS011;44912;52.754;5.994;2023-01-16T07:03:03;11.98;;;3.50;;
59127;SDS011;44912;52.754;5.994;2023-01-16T07:05:30;8.02;;;3.30;;
59127;SDS011;44912;52.754;5.994;2023-01-16T07:07:56;13.35;;;3.70;;
59127;SDS011;44912;52.754;5.994;2023-01-16T07:10:22;12.80;;;3.83;;
59127;SDS011;44912;52.754;5.994;2023-01-16T07:12:49;12.48;;;3.47;;
59127;SDS011;44912;52.754;5.994;2023-01-16T07:15:15;11.27;;;3.95;;
59127;SDS011;44912;52.754;5.994;2023-01-16T07:18:00;9.13;;;3.22;;
59127;SDS011;44912;52.754;5.994;2023-01-16T07:20:46;7.10;;;3.30;;
59127;SDS011;44912;52.754;5.994;2023-01-16T07:23:46;11.90;;;3.30;;
59127;SDS011;44912;52.754;5.994;2023-01-16T07:26:15;7.57;;;3.42;;
59127;SDS011;44912;52.754;5.994;2023-01-16T07:28:44;10.90;;;3.28;;
59127;SDS011;44912;52.754;5.994;2023-01-16T07:31:11;10.68;;;3.30;;
59127;SDS011;44912;52.754;5.994;2023-01-16T07:33:37;6.00;;;2.88;;
59127;SDS011;44912;52.754;5.994;2023-01-16T07:36:03;13.65;;;4.18;;
59127;SDS011;44912;52.754;5.994;2023-01-16T07:38:28;9.63;;;3.42;;
59127;SDS011;44912;52.754;5.994;2023-01-16T07:40:54;13.25;;;3.70;;
59127;SDS011;44912;52.754;5.994;2023-01-16T07:43:19;9.82;;;3.60;;
59127;SDS011;44912;52.754;5.994;2023-01-16T07:45:45;10.90;;;2.90;;
59127;SDS011;44912;52.754;5.994;2023-01-16T07:48:16;10.75;;;3.13;;
59127;SDS011;44912;52.754;5.994;2023-01-16T07:50:53;9.73;;;3.00;;
59127;SDS011;44912;52.754;5.994;2023-01-16T07:53:24;11.02;;;3.40;;
59127;SDS011;44912;52.754;5.994;2023-01-16T07:55:51;11.45;;;3.50;;
59127;SDS011;44912;52.754;5.994;2023-01-16T07:58:19;14.88;;;3.33;;
59127;SDS011;44912;52.754;5.994;2023-01-16T08:00:46;11.75;;;3.40;;
59127;SDS011;44912;52.754;5.994;2023-01-16T08:03:12;8.75;;;3.55;;
59127;SDS011;44912;52.754;5.994;2023-01-16T08:05:38;10.63;;;3.90;;
59127;SDS011;44912;52.754;5.994;2023-01-16T08:08:04;9.68;;;4.07;;
59127;SDS011;44912;52.754;5.994;2023-01-16T08:10:30;11.35;;;4.03;;
59127;SDS011;44912;52.754;5.994;2023-01-16T08:12:56;9.75;;;4.68;;
59127;SDS011;44912;52.754;5.994;2023-01-16T08:15:21;10.73;;;4.47;;
59127;SDS011;44912;52.754;5.994;2023-01-16T08:17:47;11.88;;;4.47;;
59127;SDS011;44912;52.754;5.994;2023-01-16T08:20:12;11.38;;;4.30;;
59127;SDS011;44912;52.754;5.994;2023-01-16T08:22:42;11.02;;;4.35;;
59127;SDS011;44912;52.754;5.994;2023-01-16T08:25:08;11.20;;;4.72;;
59127;SDS011;44912;52.754;5.994;2023-01-16T08:27:34;12.82;;;4.60;;
59127;SDS011;44912;52.754;5.994;2023-01-16T08:29:59;12.15;;;4.88;;
59127;SDS011;44912;52.754;5.994;2023-01-16T08:32:25;11.65;;;4.50;;
59127;SDS011;44912;52.754;5.994;2023-01-16T08:34:50;11.10;;;5.05;;
59127;SDS011;44912;52.754;5.994;2023-01-16T08:37:16;11.85;;;4.90;;
59127;SDS011;44912;52.754;5.994;2023-01-16T08:39:41;12.35;;;4.95;;
59127;SDS011;44912;52.754;5.994;2023-01-16T08:42:07;11.20;;;4.15;;
59127;SDS011;44912;52.754;5.994;2023-01-16T08:44:51;10.55;;;4.72;;
59127;SDS011;44912;52.754;5.994;2023-01-16T08:47:35;9.43;;;4.75;;
59127;SDS011;44912;52.754;5.994;2023-01-16T08:50:21;11.45;;;5.07;;
59127;SDS011;44912;52.754;5.994;2023-01-16T08:53:05;11.57;;;4.93;;
59127;SDS011;44912;52.754;5.994;2023-01-16T08:55:31;8.65;;;4.43;;
59127;SDS011;44912;52.754;5.994;2023-01-16T08:57:57;13.50;;;4.85;;
59127;SDS011;44912;52.754;5.994;2023-01-16T09:00:24;11.02;;;4.40;;
59127;SDS011;44912;52.754;5.994;2023-01-16T09:02:54;12.85;;;4.60;;
59127;SDS011;44912;52.754;5.994;2023-01-16T09:05:21;10.23;;;4.40;;
59127;SDS011;44912;52.754;5.994;2023-01-16T09:07:47;9.57;;;4.47;;
59127;SDS011;44912;52.754;5.994;2023-01-16T09:10:13;10.70;;;4.50;;
59127;SDS011;44912;52.754;5.994;2023-01-16T09:12:39;10.85;;;4.70;;
59127;SDS011;44912;52.754;5.994;2023-01-16T09:15:23;10.38;;;4.90;;
59127;SDS011;44912;52.754;5.994;2023-01-16T09:17:49;9.98;;;3.95;;
59127;SDS011;44912;52.754;5.994;2023-01-16T09:20:15;9.90;;;4.22;;
59127;SDS011;44912;52.754;5.994;2023-01-16T09:22:41;8.30;;;4.05;;
59127;SDS011;44912;52.754;5.994;2023-01-16T09:25:06;9.65;;;4.03;;
59127;SDS011;44912;52.754;5.994;2023-01-16T09:27:32;9.43;;;3.78;;
59127;SDS011;44912;52.754;5.994;2023-01-16T09:29:58;7.55;;;4.03;;
59127;SDS011;44912;52.754;5.994;2023-01-16T09:32:24;9.90;;;4.05;;
59127;SDS011;44912;52.754;5.994;2023-01-16T09:34:50;8.73;;;4.35;;
59127;SDS011;44912;52.754;5.994;2023-01-16T09:37:17;7.68;;;3.88;;
59127;SDS011;44912;52.754;5.994;2023-01-16T09:39:43;7.10;;;3.30;;
59127;SDS011;44912;52.754;5.994;2023-01-16T09:42:15;8.52;;;3.67;;
59127;SDS011;44912;52.754;5.994;2023-01-16T09:45:28;9.10;;;3.70;;
59127;SDS011;44912;52.754;5.994;2023-01-16T09:48:01;8.93;;;3.60;;
59127;SDS011;44912;52.754;5.994;2023-01-16T09:53:04;7.03;;;2.60;;
59127;SDS011;44912;52.754;5.994;2023-01-16T09:55:53;8.85;;;2.95;;
59127;SDS011;44912;52.754;5.994;2023-01-16T09:58:40;5.97;;;2.30;;
59127;SDS011;44912;52.754;5.994;2023-01-16T10:01:14;6.00;;;2.13;;
59127;SDS011;44912;52.754;5.994;2023-01-16T10:03:45;4.20;;;1.90;;
59127;SDS011;44912;52.754;5.994;2023-01-16T10:06:16;4.47;;;1.92;;
59127;SDS011;44912;52.754;5.994;2023-01-16T10:09:04;3.58;;;1.90;;
59127;SDS011;44912;52.754;5.994;2023-01-16T10:14:26;4.82;;;1.85;;
59127;SDS011;44912;52.754;5.994;2023-01-16T10:17:22;5.43;;;1.95;;
59127;SDS011;44912;52.754;5.994;2023-01-16T10:26:06;3.92;;;1.85;;
59127;SDS011;44912;52.754;5.994;2023-01-16T10:31:08;4.13;;;1.77;;
59127;SDS011;44912;52.754;5.994;2023-01-16T10:33:41;4.28;;;1.90;;
59127;SDS011;44912;52.754;5.994;2023-01-16T10:36:15;3.53;;;2.00;;
59127;SDS011;44912;52.754;5.994;2023-01-16T10:38:49;4.18;;;1.90;;
59127;SDS011;44912;52.754;5.994;2023-01-16T10:41:30;6.20;;;1.98;;
59127;SDS011;44912;52.754;5.994;2023-01-16T10:44:31;4.25;;;2.20;;
59127;SDS011;44912;52.754;5.994;2023-01-16T10:47:21;4.40;;;2.28;;
59127;SDS011;44912;52.754;5.994;2023-01-16T10:50:14;5.75;;;2.40;;
59127;SDS011;44912;52.754;5.994;2023-01-16T10:52:41;3.45;;;2.00;;
59127;SDS011;44912;52.754;5.994;2023-01-16T10:55:07;4.93;;;2.30;;
59127;SDS011;44912;52.754;5.994;2023-01-16T10:57:34;4.80;;;2.20;;
59127;SDS011;44912;52.754;5.994;2023-01-16T11:00:14;3.72;;;2.15;;
59127;SDS011;44912;52.754;5.994;2023-01-16T11:02:45;5.20;;;2.40;;
59127;SDS011;44912;52.754;5.994;2023-01-16T11:05:25;5.35;;;2.42;;
59127;SDS011;44912;52.754;5.994;2023-01-16T11:07:56;4.40;;;2.42;;
59127;SDS011;44912;52.754;5.994;2023-01-16T11:10:35;5.68;;;2.60;;
59127;SDS011;44912;52.754;5.994;2023-01-16T11:13:01;5.57;;;2.60;;
59127;SDS011;44912;52.754;5.994;2023-01-16T11:16:04;5.60;;;2.97;;
59127;SDS011;44912;52.754;5.994;2023-01-16T11:19:20;6.22;;;3.00;;
59127;SDS011;44912;52.754;5.994;2023-01-16T11:21:58;5.88;;;2.58;;
59127;SDS011;44912;52.754;5.994;2023-01-16T11:24:33;5.93;;;3.00;;
59127;SDS011;44912;52.754;5.994;2023-01-16T11:27:01;5.97;;;3.05;;
59127;SDS011;44912;52.754;5.994;2023-01-16T11:29:34;5.50;;;2.88;;
59127;SDS011;44912;52.754;5.994;2023-01-16T11:32:07;5.23;;;2.87;;
59127;SDS011;44912;52.754;5.994;2023-01-16T11:34:37;8.77;;;3.08;;
59127;SDS011;44912;52.754;5.994;2023-01-16T11:37:09;7.05;;;3.40;;
59127;SDS011;44912;52.754;5.994;2023-01-16T11:39:37;7.03;;;3.15;;
59127;SDS011;44912;52.754;5.994;2023-01-16T11:42:04;7.13;;;3.17;;
59127;SDS011;44912;52.754;5.994;2023-01-16T11:44:57;5.65;;;3.20;;
59127;SDS011;44912;52.754;5.994;2023-01-16T11:47:43;5.97;;;2.90;;
59127;SDS011;44912;52.754;5.994;2023-01-16T11:50:32;7.78;;;3.20;;
59127;SDS011;44912;52.754;5.994;2023-01-16T11:52:58;7.38;;;3.47;;
59127;SDS011;44912;52.754;5.994;2023-01-16T11:55:26;6.70;;;3.25;;
59127;SDS011;44912;52.754;5.994;2023-01-16T11:58:23;6.35;;;3.38;;
59127;SDS011;44912;52.754;5.994;2023-01-16T12:04:26;8.30;;;3.40;;
59127;SDS011;44912;52.754;5.994;2023-01-16T12:06:58;7.60;;;3.30;;
59127;SDS011;44912;52.754;5.994;2023-01-16T12:15:05;7.72;;;3.47;;
59127;SDS011;44912;52.754;5.994;2023-01-16T12:17:41;7.00;;;3.30;;
59127;SDS011;44912;52.754;5.994;2023-01-16T12:20:18;7.50;;;3.50;;
59127;SDS011;44912;52.754;5.994;2023-01-16T12:23:11;8.68;;;3.80;;
59127;SDS011;44912;52.754;5.994;2023-01-16T12:34:25;5.78;;;3.35;;
59127;SDS011;44912;52.754;5.994;2023-01-16T12:37:12;7.68;;;3.65;;
59127;SDS011;44912;52.754;5.994;2023-01-16T12:40:05;6.18;;;3.13;;
59127;SDS011;44912;52.754;5.994;2023-01-16T12:45:48;8.20;;;3.65;;
59127;SDS011;44912;52.754;5.994;2023-01-16T12:51:27;5.07;;;2.90;;
59127;SDS011;44912;52.754;5.994;2023-01-16T12:57:13;5.38;;;3.15;;
59127;SDS011;44912;52.754;5.994;2023-01-16T13:00:03;6.07;;;3.35;;
59127;SDS011;44912;52.754;5.994;2023-01-16T13:05:31;5.57;;;3.22;;
59127;SDS011;44912;52.754;5.994;2023-01-16T13:08:00;6.28;;;3.10;;
59127;SDS011;44912;52.754;5.994;2023-01-16T13:10:43;5.88;;;3.38;;
59127;SDS011;44912;52.754;5.994;2023-01-16T13:13:33;6.57;;;3.20;;
59127;SDS011;44912;52.754;5.994;2023-01-16T13:16:07;6.63;;;3.20;;
59127;SDS011;44912;52.754;5.994;2023-01-16T13:18:42;6.45;;;2.95;;
59127;SDS011;44912;52.754;5.994;2023-01-16T13:21:21;6.13;;;3.08;;
59127;SDS011;44912;52.754;5.994;2023-01-16T13:23:52;7.03;;;3.17;;
59127;SDS011;44912;52.754;5.994;2023-01-16T13:26:23;7.97;;;3.63;;
59127;SDS011;44912;52.754;5.994;2023-01-16T13:28:53;7.28;;;3.17;;
59127;SDS011;44912;52.754;5.994;2023-01-16T13:31:25;6.63;;;2.90;;
59127;SDS011;44912;52.754;5.994;2023-01-16T13:34:00;5.05;;;2.92;;
59127;SDS011;44912;52.754;5.994;2023-01-16T13:36:59;5.05;;;2.80;;
59127;SDS011;44912;52.754;5.994;2023-01-16T13:42:09;6.80;;;3.22;;
59127;SDS011;44912;52.754;5.994;2023-01-16T13:44:41;4.40;;;2.50;;
59127;SDS011;44912;52.754;5.994;2023-01-16T13:47:31;7.47;;;3.00;;
59127;SDS011;44912;52.754;5.994;2023-01-16T13:52:45;6.15;;;2.85;;
59127;SDS011;44912;52.754;5.994;2023-01-16T13:55:24;5.60;;;2.58;;
59127;SDS011;44912;52.754;5.994;2023-01-16T13:57:54;4.50;;;2.55;;
59127;SDS011;44912;52.754;5.994;2023-01-16T14:00:21;5.93;;;2.50;;
59127;SDS011;44912;52.754;5.994;2023-01-16T14:06:21;5.32;;;2.50;;
59127;SDS011;44912;52.754;5.994;2023-01-16T14:17:15;6.28;;;2.47;;
59127;SDS011;44912;52.754;5.994;2023-01-16T14:25:31;5.35;;;2.40;;
59127;SDS011;44912;52.754;5.994;2023-01-16T14:27:59;5.70;;;2.10;;
59127;SDS011;44912;52.754;5.994;2023-01-16T14:30:26;5.53;;;2.10;;
59127;SDS011;44912;52.754;5.994;2023-01-16T14:32:57;4.18;;;1.98;;
59127;SDS011;44912;52.754;5.994;2023-01-16T14:35:26;7.20;;;2.60;;
59127;SDS011;44912;52.754;5.994;2023-01-16T14:38:15;4.93;;;2.08;;
59127;SDS011;44912;52.754;5.994;2023-01-16T14:40:47;5.13;;;2.00;;
59127;SDS011;44912;52.754;5.994;2023-01-16T14:44:22;5.10;;;2.25;;
59127;SDS011;44912;52.754;5.994;2023-01-16T14:46:54;7.68;;;2.45;;
59127;SDS011;44912;52.754;5.994;2023-01-16T14:53:26;5.45;;;2.42;;
59127;SDS011;44912;52.754;5.994;2023-01-16T14:56:24;4.32;;;2.30;;
59127;SDS011;44912;52.754;5.994;2023-01-16T14:58:56;4.20;;;2.42;;
59127;SDS011;44912;52.754;5.994;2023-01-16T15:01:50;6.07;;;2.42;;
59127;SDS011;44912;52.754;5.994;2023-01-16T15:04:55;4.43;;;2.28;;
59127;SDS011;44912;52.754;5.994;2023-01-16T15:08:01;4.15;;;2.08;;
59127;SDS011;44912;52.754;5.994;2023-01-16T15:12:54;3.88;;;2.10;;
59127;SDS011;44912;52.754;5.994;2023-01-16T15:15:47;6.22;;;2.30;;
59127;SDS011;44912;52.754;5.994;2023-01-16T15:18:24;5.50;;;2.33;;
59127;SDS011;44912;52.754;5.994;2023-01-16T15:21:14;5.72;;;2.60;;
59127;SDS011;44912;52.754;5.994;2023-01-16T15:24:04;5.28;;;2.35;;
59127;SDS011;44912;52.754;5.994;2023-01-16T15:29:32;5.05;;;2.50;;
59127;SDS011;44912;52.754;5.994;2023-01-16T15:32:16;4.97;;;2.28;;
59127;SDS011;44912;52.754;5.994;2023-01-16T15:34:45;5.95;;;2.72;;
59127;SDS011;44912;52.754;5.994;2023-01-16T15:37:20;6.32;;;2.65;;
59127;SDS011;44912;52.754;5.994;2023-01-16T15:39:47;6.20;;;2.92;;
59127;SDS011;44912;52.754;5.994;2023-01-16T15:42:19;7.72;;;3.20;;
59127;SDS011;44912;52.754;5.994;2023-01-16T15:45:14;6.85;;;3.15;;
59127;SDS011;44912;52.754;5.994;2023-01-16T15:48:23;5.82;;;3.10;;
59127;SDS011;44912;52.754;5.994;2023-01-16T15:51:03;7.85;;;3.50;;
59127;SDS011;44912;52.754;5.994;2023-01-16T15:53:40;5.82;;;3.25;;
59127;SDS011;44912;52.754;5.994;2023-01-16T15:56:18;7.63;;;3.75;;
59127;SDS011;44912;52.754;5.994;2023-01-16T15:59:04;6.70;;;3.65;;
59127;SDS011;44912;52.754;5.994;2023-01-16T16:02:23;13.68;;;9.73;;
59127;SDS011;44912;52.754;5.994;2023-01-16T16:04:53;8.77;;;4.43;;
59127;SDS011;44912;52.754;5.994;2023-01-16T16:07:22;6.50;;;3.85;;
59127;SDS011;44912;52.754;5.994;2023-01-16T16:09:48;9.45;;;5.28;;
59127;SDS011;44912;52.754;5.994;2023-01-16T16:12:18;9.25;;;5.68;;
59127;SDS011;44912;52.754;5.994;2023-01-16T16:14:45;7.43;;;4.80;;
59127;SDS011;44912;52.754;5.994;2023-01-16T16:17:30;5.25;;;3.63;;
59127;SDS011;44912;52.754;5.994;2023-01-16T16:20:29;6.28;;;3.28;;
59127;SDS011;44912;52.754;5.994;2023-01-16T16:25:47;2.78;;;2.00;;
59127;SDS011;44912;52.754;5.994;2023-01-16T16:30:44;3.05;;;1.95;;
59127;SDS011;44912;52.754;5.994;2023-01-16T16:33:17;3.25;;;2.13;;
59127;SDS011;44912;52.754;5.994;2023-01-16T16:35:48;3.95;;;2.58;;
59127;SDS011;44912;52.754;5.994;2023-01-16T16:38:22;5.13;;;2.63;;
59127;SDS011;44912;52.754;5.994;2023-01-16T16:48:47;7.28;;;4.75;;
59127;SDS011;44912;52.754;5.994;2023-01-16T16:51:46;6.80;;;4.38;;
59127;SDS011;44912;52.754;5.994;2023-01-16T16:54:06;6.60;;;4.70;;
59127;SDS011;44912;52.754;5.994;2023-01-16T16:56:36;6.70;;;4.50;;
59127;SDS011;44912;52.754;5.994;2023-01-16T16:59:03;8.02;;;4.90;;
59127;SDS011;44912;52.754;5.994;2023-01-16T17:01:29;8.90;;;5.32;;
59127;SDS011;44912;52.754;5.994;2023-01-16T17:03:56;6.95;;;4.60;;
59127;SDS011;44912;52.754;5.994;2023-01-16T17:06:41;8.73;;;4.68;;
59127;SDS011;44912;52.754;5.994;2023-01-16T17:09:09;7.70;;;5.10;;
59127;SDS011;44912;52.754;5.994;2023-01-16T17:11:39;8.77;;;6.03;;
59127;SDS011;44912;52.754;5.994;2023-01-16T17:14:06;6.93;;;4.85;;
59127;SDS011;44912;52.754;5.994;2023-01-16T17:16:31;7.63;;;5.60;;
59127;SDS011;44912;52.754;5.994;2023-01-16T17:18:59;8.43;;;5.07;;
59127;SDS011;44912;52.754;5.994;2023-01-16T17:21:30;9.13;;;6.70;;
59127;SDS011;44912;52.754;5.994;2023-01-16T17:23:55;8.63;;;5.95;;
59127;SDS011;44912;52.754;5.994;2023-01-16T17:26:21;9.55;;;6.70;;
59127;SDS011;44912;52.754;5.994;2023-01-16T17:28:47;10.55;;;7.35;;
59127;SDS011;44912;52.754;5.994;2023-01-16T17:31:14;10.98;;;7.40;;